createdAt,value
2022-10-10T00:02:19.188Z,101432.19
2022-10-10T00:05:08.722Z,101427.86
2022-10-10T00:07:57.477Z,101433.63
2022-10-10T00:10:45.548Z,101434.03
2022-10-10T00:13:34.041Z,101435.28
2022-10-10T00:16:22.361Z,101435.48
2022-10-10T00:19:10.895Z,101442.89
2022-10-10T00:22:00.397Z,101432.40
2022-10-10T00:24:49.005Z,101446.83
2022-10-10T00:27:38.607Z,101443.52
2022-10-10T00:30:27.084Z,101447.02
2022-10-10T00:33:15.551Z,101445.58
2022-10-10T00:36:03.784Z,101450.10
2022-10-10T00:38:52.059Z,101450.31
2022-10-10T00:41:40.346Z,101450.51
2022-10-10T00:44:28.784Z,101450.91
2022-10-10T00:47:17.194Z,101461.01
2022-10-10T00:50:07.934Z,101460.38
2022-10-10T00:52:56.575Z,101460.60
2022-10-10T00:55:45.094Z,101471.51
2022-10-10T00:58:36.132Z,101471.73
2022-10-10T01:01:25.037Z,101461.41
2022-10-10T01:04:31.873Z,101465.31
2022-10-10T01:07:22.947Z,101462.84
2022-10-10T01:10:15.329Z,101466.73
2022-10-10T01:13:12.479Z,101464.28
2022-10-10T01:16:07.796Z,101466.33
2022-10-10T01:19:07.437Z,101470.03
2022-10-10T01:22:11.229Z,101473.92
2022-10-10T01:25:14.364Z,101468.58
2022-10-10T01:28:10.344Z,101459.91
2022-10-10T01:30:59.979Z,101474.33
2022-10-10T01:33:54.955Z,101472.05
2022-10-10T01:36:52.557Z,101481.11
2022-10-10T01:39:45.705Z,101484.19
2022-10-10T01:42:42.301Z,101490.78
2022-10-10T01:45:31.447Z,101484.59
2022-10-10T01:48:23.997Z,101485.62
2022-10-10T01:51:29.881Z,101491.59
2022-10-10T01:54:31.158Z,101490.96
2022-10-10T01:57:26.528Z,101494.03
2022-10-10T02:00:17.449Z,101506.58
2022-10-10T02:03:12.746Z,101498.14
2022-10-10T02:06:06.827Z,101503.48
2022-10-10T02:09:02.429Z,101500.99
2022-10-10T02:11:51.416Z,101504.52
2022-10-10T02:14:44.429Z,101498.31
2022-10-10T02:17:36.646Z,101492.34
2022-10-10T02:20:25.147Z,101496.04
2022-10-10T02:23:17.915Z,101502.81
2022-10-10T02:26:06.389Z,101499.51
2022-10-10T02:28:58.106Z,101504.45
2022-10-10T02:31:56.758Z,101503.81
2022-10-10T02:34:49.662Z,101511.39
2022-10-10T02:37:40.683Z,101518.77
2022-10-10T02:40:31.841Z,101536.68
2022-10-10T02:43:20.990Z,101531.52
2022-10-10T02:46:12.873Z,101533.38
2022-10-10T02:49:02.675Z,101523.70
2022-10-10T02:51:51.091Z,101525.92
2022-10-10T02:54:38.903Z,101533.32
2022-10-10T02:57:27.237Z,101534.73
2022-10-10T03:00:16.505Z,101538.64
2022-10-10T03:03:04.387Z,101544.17
2022-10-10T03:05:52.885Z,101548.08
2022-10-10T03:08:41.543Z,101552.80
2022-10-10T03:11:30.194Z,101553.18
2022-10-10T03:14:18.641Z,101552.55
2022-10-10T03:17:06.467Z,101559.94
2022-10-10T03:19:54.874Z,101557.66
2022-10-10T03:22:43.426Z,101564.41
2022-10-10T03:25:31.322Z,101560.26
2022-10-10T03:28:19.349Z,101562.50
2022-10-10T03:31:07.977Z,101568.23
2022-10-10T03:33:56.151Z,101563.27
2022-10-10T03:36:44.288Z,101573.52
2022-10-10T03:39:32.905Z,101573.72
2022-10-10T03:42:20.844Z,101570.59
2022-10-10T03:45:10.429Z,101565.63
2022-10-10T03:47:58.600Z,101568.05
2022-10-10T03:50:46.672Z,101566.97
2022-10-10T03:53:34.756Z,101571.05
2022-10-10T03:56:23.001Z,101577.58
2022-10-10T03:59:11.015Z,101577.97
2022-10-10T04:01:59.215Z,101582.67
2022-10-10T04:04:47.369Z,101588.39
2022-10-10T04:07:35.385Z,101593.48
2022-10-10T04:10:23.855Z,101594.70
2022-10-10T04:13:11.887Z,101600.59
2022-10-10T04:15:59.998Z,101602.82
2022-10-10T04:18:52.575Z,101604.21
2022-10-10T04:21:47.929Z,101597.39
2022-10-10T04:24:38.353Z,101597.77
2022-10-10T04:28:00.879Z,101602.66
2022-10-10T04:53:01.583Z,101631.20
2022-10-10T04:56:39.581Z,101635.05
2022-10-10T05:14:26.478Z,101650.70
2022-10-10T05:42:58.739Z,101676.71
2022-10-10T05:50:44.655Z,101693.08
2022-10-10T05:58:13.869Z,101691.59
2022-10-10T06:01:10.761Z,101699.23
2022-10-10T06:04:01.062Z,101699.70
2022-10-10T06:06:52.653Z,101702.18
2022-10-10T06:23:57.965Z,101724.63
2022-10-10T06:26:52.361Z,101730.62
2022-10-10T06:29:47.433Z,101733.12
2022-10-10T06:32:57.250Z,101736.23
2022-10-10T06:50:25.669Z,101754.60
2022-10-10T06:57:47.674Z,101752.83
2022-10-10T07:00:53.731Z,101753.30
2022-10-10T07:03:49.398Z,101749.59
2022-10-10T07:06:54.631Z,101745.64
2022-10-10T07:13:54.218Z,101763.27
2022-10-10T07:24:32.358Z,101752.30
2022-10-10T07:27:22.171Z,101741.63
2022-10-10T07:30:20.527Z,101752.79
2022-10-10T07:33:23.581Z,101742.50
2022-10-10T07:36:12.312Z,101752.02
2022-10-10T07:39:02.137Z,101754.94
2022-10-10T07:41:57.245Z,101747.33
2022-10-10T07:45:00.739Z,101747.14
2022-10-10T07:47:51.177Z,101761.34
2022-10-10T07:50:43.035Z,101759.30
2022-10-10T07:53:34.333Z,101759.52
2022-10-10T07:56:24.686Z,101760.15
2022-10-10T07:59:15.536Z,101755.66
2022-10-10T08:02:04.993Z,101749.31
2022-10-10T08:04:53.329Z,101750.81
2022-10-10T08:07:43.192Z,101758.30
2022-10-10T08:10:34.649Z,101755.69
2022-10-10T08:13:29.720Z,101757.03
2022-10-10T08:16:19.794Z,101753.78
2022-10-10T08:19:07.679Z,101761.06
2022-10-10T08:21:56.077Z,101760.08
2022-10-10T08:24:47.376Z,101763.83
2022-10-10T08:27:35.744Z,101760.97
2022-10-10T08:41:00.962Z,101759.95
2022-10-10T08:49:35.565Z,101752.33
2022-10-10T09:14:08.852Z,101756.48
2022-10-10T09:24:33.711Z,101761.22
2022-10-10T10:48:19.053Z,101704.17
2022-10-10T10:51:31.665Z,101693.93
2022-10-10T10:54:50.474Z,101689.64
2022-10-10T10:58:48.816Z,101681.94
2022-10-10T11:01:55.070Z,101675.54
2022-10-10T11:05:19.980Z,101679.36
2022-10-10T11:46:54.189Z,101628.62
2022-10-10T12:38:24.691Z,101605.94
2022-10-10T12:41:15.843Z,101604.65
2022-10-10T12:44:23.031Z,101607.83
2022-10-10T12:47:59.886Z,101605.02
2022-10-10T12:50:54.397Z,101602.20
2022-10-10T12:53:52.396Z,101598.45
2022-10-10T12:56:44.918Z,101591.98
2022-10-10T12:59:37.522Z,101599.73
2022-10-10T13:02:32.589Z,101595.38
2022-10-10T13:05:27.630Z,101587.53
2022-10-10T13:08:25.291Z,101588.48
2022-10-10T13:11:18.094Z,101593.05
2022-10-10T13:14:11.213Z,101589.28
2022-10-10T13:17:01.957Z,101581.66
2022-10-10T13:19:52.547Z,101591.29
2022-10-10T13:22:44.054Z,101590.56
2022-10-10T13:25:40.024Z,101581.53
2022-10-10T13:28:29.707Z,101577.30
2022-10-10T13:31:21.220Z,101573.42
2022-10-10T13:34:14.473Z,101572.03
2022-10-10T13:37:08.605Z,101565.80
2022-10-10T13:40:00.449Z,101563.93
2022-10-10T13:42:51.318Z,101560.64
2022-10-10T13:45:47.173Z,101563.34
2022-10-10T13:48:42.560Z,101563.23
2022-10-10T13:51:46.650Z,101570.62
2022-10-10T13:54:47.413Z,101568.39
2022-10-10T13:57:41.640Z,101568.86
2022-10-10T14:00:33.558Z,101570.60
2022-10-10T14:03:25.347Z,101575.41
2022-10-10T14:06:20.577Z,101574.23
2022-10-10T14:09:19.442Z,101577.64
2022-10-10T14:12:18.852Z,101568.83
2022-10-10T14:15:36.206Z,101563.06
2022-10-10T14:18:26.324Z,101563.98
2022-10-10T14:21:30.242Z,101560.95
2022-10-10T14:24:21.006Z,101553.16
2022-10-10T14:27:21.400Z,101551.60
2022-10-10T14:30:17.151Z,101553.11
2022-10-10T14:33:11.855Z,101554.49
2022-10-10T14:36:01.687Z,101560.20
2022-10-10T14:38:50.482Z,101557.24
2022-10-10T14:41:38.930Z,101557.10
2022-10-10T14:44:28.325Z,101555.56
2022-10-10T14:47:19.776Z,101551.53
2022-10-10T14:50:17.432Z,101554.89
2022-10-10T14:53:06.857Z,101552.89
2022-10-10T14:55:58.274Z,101555.20
2022-10-10T14:58:49.038Z,101549.07
2022-10-10T15:01:37.830Z,101553.27
2022-10-10T15:04:26.791Z,101551.44
2022-10-10T15:07:16.590Z,101544.05
2022-10-10T15:13:17.833Z,101541.70
2022-10-10T15:16:08.234Z,101539.31
2022-10-10T15:18:57.334Z,101543.94
2022-10-10T15:21:48.952Z,101552.30
2022-10-10T15:24:37.977Z,101547.20
2022-10-10T15:27:27.551Z,101544.56
2022-10-10T15:30:16.513Z,101547.33
2022-10-10T15:33:05.266Z,101551.10
2022-10-10T15:36:08.899Z,101554.67
2022-10-10T15:39:00.390Z,101551.45
2022-10-10T15:41:49.968Z,101552.31
2022-10-10T15:44:43.872Z,101556.05
2022-10-10T15:47:34.644Z,101550.73
2022-10-10T15:50:27.095Z,101556.14
2022-10-10T15:53:33.246Z,101550.82
2022-10-10T15:56:25.510Z,101551.28
2022-10-10T15:59:15.059Z,101544.51
2022-10-10T16:02:04.225Z,101551.41
2022-10-10T16:04:54.419Z,101554.34
2022-10-10T16:07:48.004Z,101551.28
2022-10-10T16:10:42.636Z,101552.33
2022-10-10T16:13:34.040Z,101552.80
2022-10-10T16:16:24.790Z,101560.05
2022-10-10T16:19:16.603Z,101556.53
2022-10-10T16:22:06.627Z,101552.20
2022-10-10T16:28:06.480Z,101554.91
2022-10-10T16:30:56.335Z,101552.25
2022-10-10T16:33:48.246Z,101549.56
2022-10-10T16:36:38.029Z,101554.34
2022-10-10T16:39:27.190Z,101551.64
2022-10-10T16:42:18.852Z,101551.66
2022-10-10T16:45:11.257Z,101547.12
2022-10-10T16:48:00.889Z,101548.77
2022-10-10T16:50:51.834Z,101558.66
2022-10-10T16:53:41.412Z,101562.39
2022-10-10T16:56:31.192Z,101553.30
2022-10-10T16:59:19.942Z,101557.82
2022-10-10T17:02:13.472Z,101564.00
2022-10-10T17:05:04.416Z,101553.44
2022-10-10T17:07:58.541Z,101562.08
2022-10-10T17:10:48.270Z,101564.54
2022-10-10T17:13:37.442Z,101563.51
2022-10-10T17:19:38.958Z,101559.55
2022-10-10T17:22:27.498Z,101560.97
2022-10-10T17:25:16.628Z,101562.63
2022-10-10T17:28:06.645Z,101566.10
2022-10-10T17:30:59.883Z,101571.02
2022-10-10T17:33:53.997Z,101567.48
2022-10-10T17:36:43.943Z,101568.91
2022-10-10T17:39:33.509Z,101566.84
2022-10-10T17:42:22.773Z,101560.42
2022-10-10T17:45:16.414Z,101563.70
2022-10-10T17:48:08.945Z,101554.60
2022-10-10T17:50:58.550Z,101561.59
2022-10-10T17:53:48.142Z,101563.19
2022-10-10T17:56:40.150Z,101569.77
2022-10-10T17:59:29.338Z,101566.86
2022-10-10T18:02:19.693Z,101569.94
2022-10-10T18:05:10.216Z,101570.72
2022-10-10T18:07:59.136Z,101571.29
2022-10-10T18:10:47.839Z,101571.02
2022-10-10T18:13:38.078Z,101563.77
2022-10-10T18:16:28.763Z,101566.83
2022-10-10T18:19:18.606Z,101575.45
2022-10-10T18:22:08.801Z,101580.74
2022-10-10T18:24:57.758Z,101579.86
2022-10-10T18:27:46.926Z,101578.80
2022-10-10T18:30:35.678Z,101580.38
2022-10-10T18:33:24.635Z,101582.17
2022-10-10T18:36:15.897Z,101573.26
2022-10-10T18:39:07.703Z,101569.70
2022-10-10T18:41:57.659Z,101568.80
2022-10-10T18:44:48.080Z,101566.08
2022-10-10T18:47:37.709Z,101560.86
2022-10-10T18:50:26.993Z,101561.16
2022-10-10T18:53:33.363Z,101560.08
2022-10-10T18:56:24.895Z,101553.84
2022-10-10T18:59:15.984Z,101562.40
2022-10-10T19:02:05.574Z,101563.15
2022-10-10T19:04:54.931Z,101558.39
2022-10-10T19:07:45.009Z,101554.20
2022-10-10T19:10:33.472Z,101568.94
2022-10-10T19:13:22.229Z,101572.19
2022-10-10T19:16:11.689Z,101567.39
2022-10-10T19:19:02.024Z,101566.10
2022-10-10T19:21:55.592Z,101568.50
2022-10-10T19:24:45.234Z,101572.72
2022-10-10T19:27:42.182Z,101576.97
2022-10-10T19:30:31.389Z,101576.87
2022-10-10T19:33:20.303Z,101573.11
2022-10-10T19:36:13.191Z,101576.31
2022-10-10T19:39:01.703Z,101575.22
2022-10-10T19:41:50.666Z,101576.96
2022-10-10T19:44:40.033Z,101573.16
2022-10-10T19:47:29.019Z,101576.39
2022-10-10T19:50:18.169Z,101568.92
2022-10-10T19:53:08.024Z,101575.47
2022-10-10T19:56:02.323Z,101564.31
2022-10-10T19:58:51.366Z,101560.36
2022-10-10T20:01:40.585Z,101563.38
2022-10-10T20:04:29.713Z,101566.41
2022-10-10T20:07:19.068Z,101565.11
2022-10-10T20:10:11.705Z,101560.34
2022-10-10T20:13:00.094Z,101565.19
2022-10-10T20:15:50.652Z,101567.39
2022-10-10T20:18:41.087Z,101566.09
2022-10-10T20:21:32.283Z,101561.12
2022-10-10T20:24:22.379Z,101563.95
2022-10-10T20:27:12.655Z,101557.97
2022-10-10T20:30:01.213Z,101561.84
2022-10-10T20:32:50.983Z,101563.01
2022-10-10T20:35:39.946Z,101569.34
2022-10-10T20:38:29.361Z,101568.53
2022-10-10T20:41:31.617Z,101563.36
2022-10-10T20:44:21.179Z,101565.02
2022-10-10T20:47:11.578Z,101553.55
2022-10-10T20:50:00.937Z,101556.22
2022-10-10T20:52:50.140Z,101557.03
2022-10-10T20:55:38.437Z,101567.53
2022-10-10T20:58:27.510Z,101564.86
2022-10-10T21:01:19.263Z,101567.33
2022-10-10T21:04:13.738Z,101567.17
2022-10-10T21:07:02.666Z,101566.97
2022-10-10T21:09:51.655Z,101567.62
2022-10-10T21:12:40.795Z,101567.46
2022-10-10T21:15:47.159Z,101563.59
2022-10-10T21:18:36.526Z,101570.42
2022-10-10T21:21:27.115Z,101562.42
2022-10-10T21:24:18.133Z,101559.40
2022-10-10T21:27:06.732Z,101549.38
2022-10-10T21:29:55.847Z,101546.72
2022-10-10T21:32:44.605Z,101548.37
2022-10-10T21:35:35.406Z,101549.19
2022-10-10T21:38:27.030Z,101543.05
2022-10-10T21:41:19.050Z,101547.17
2022-10-10T21:44:08.842Z,101542.69
2022-10-10T21:46:57.934Z,101550.48
2022-10-10T21:49:46.965Z,101550.32
2022-10-10T21:52:36.054Z,101552.79
2022-10-10T21:55:25.494Z,101549.31
2022-10-10T21:58:14.456Z,101550.12
2022-10-10T22:01:10.169Z,101546.45
2022-10-10T22:04:00.157Z,101535.78
2022-10-10T22:06:49.734Z,101540.95
2022-10-10T22:09:38.897Z,101532.11
2022-10-10T22:12:28.268Z,101523.95
2022-10-10T22:15:17.866Z,101523.95
2022-10-10T22:18:07.003Z,101525.77
2022-10-10T22:20:55.971Z,101523.30
2022-10-10T22:23:51.066Z,101522.29
2022-10-10T22:26:41.506Z,101519.62
2022-10-10T22:29:50.914Z,101513.44
2022-10-10T22:32:40.057Z,101511.98
2022-10-10T22:35:29.451Z,101519.34
2022-10-10T22:38:17.720Z,101512.52
2022-10-10T22:41:06.537Z,101498.37
2022-10-10T22:43:55.698Z,101500.19
2022-10-10T22:46:44.457Z,101503.05
2022-10-10T22:49:37.247Z,101506.73
2022-10-10T22:52:26.471Z,101502.41
2022-10-10T22:55:18.625Z,101499.09
2022-10-10T22:58:08.626Z,101500.11
2022-10-10T23:00:56.797Z,101494.30
2022-10-10T23:03:46.404Z,101489.16
2022-10-10T23:06:35.161Z,101486.01
2022-10-10T23:09:24.532Z,101484.35
2022-10-10T23:12:14.315Z,101485.56
2022-10-10T23:15:04.292Z,101483.25
2022-10-10T23:17:52.791Z,101480.30
2022-10-10T23:20:41.668Z,101489.47
2022-10-10T23:23:30.420Z,101480.02
2022-10-10T23:26:20.761Z,101480.50
2022-10-10T23:29:11.543Z,101477.19
2022-10-10T23:32:01.569Z,101478.39
2022-10-10T23:34:50.288Z,101477.91
2022-10-10T23:37:39.085Z,101467.61
2022-10-10T23:40:27.999Z,101469.81
2022-10-10T23:43:16.959Z,101473.65
2022-10-10T23:46:06.276Z,101475.86
2022-10-10T23:48:55.499Z,101483.20
2022-10-10T23:51:45.068Z,101476.38
2022-10-10T23:54:33.835Z,101485.38
2022-10-10T23:57:22.988Z,101474.42
